createdAt,value
2022-12-02T00:03:50.694Z,6.68
2022-12-02T00:08:54.420Z,6.69
2022-12-02T00:13:59.112Z,6.67
2022-12-02T00:19:00.696Z,6.73
2022-12-02T00:24:02.308Z,6.66
2022-12-02T00:29:04.146Z,6.66
2022-12-02T00:34:06.091Z,6.60
2022-12-02T00:39:07.739Z,6.55
2022-12-02T00:44:28.080Z,6.50
2022-12-02T00:49:29.771Z,6.47
2022-12-02T00:54:31.390Z,6.43
2022-12-02T00:59:32.994Z,6.36
2022-12-02T01:04:34.815Z,6.33
2022-12-02T01:09:36.802Z,6.29
2022-12-02T01:14:38.422Z,6.30
2022-12-02T01:19:40.506Z,6.29
2022-12-02T01:24:42.008Z,6.32
2022-12-02T01:29:43.543Z,6.35
2022-12-02T01:34:45.962Z,6.33
2022-12-02T01:39:47.545Z,6.27
2022-12-02T01:44:49.467Z,6.29
2022-12-02T01:49:52.083Z,6.34
2022-12-02T01:54:53.877Z,6.36
2022-12-02T01:59:56.490Z,6.38
2022-12-02T02:05:19.968Z,6.42
2022-12-02T02:10:24.548Z,6.42
2022-12-02T02:15:26.795Z,6.43
2022-12-02T02:20:29.440Z,6.44
2022-12-02T02:25:32.852Z,6.50
2022-12-02T02:30:36.025Z,6.53
2022-12-02T02:35:42.261Z,6.56
2022-12-02T02:40:45.100Z,6.56
2022-12-02T02:45:48.659Z,6.57
2022-12-02T02:50:50.370Z,6.60
2022-12-02T02:55:54.433Z,6.58
2022-12-02T03:01:16.551Z,6.54
2022-12-02T03:06:20.638Z,6.49
2022-12-02T03:11:22.999Z,6.50
2022-12-02T03:16:26.046Z,6.51
2022-12-02T03:21:28.121Z,6.51
2022-12-02T03:26:30.503Z,6.55
2022-12-02T03:31:34.371Z,6.59
2022-12-02T03:36:36.198Z,6.61
2022-12-02T03:41:39.637Z,6.62
2022-12-02T03:46:42.387Z,6.63
2022-12-02T03:51:44.656Z,6.57
2022-12-02T03:56:46.400Z,6.58
2022-12-02T04:01:48.614Z,6.54
2022-12-02T04:06:50.315Z,6.53
2022-12-02T04:11:51.805Z,6.53
2022-12-02T04:16:53.415Z,6.50
2022-12-02T04:21:55.030Z,6.51
2022-12-02T04:26:56.647Z,6.51
2022-12-02T04:31:58.202Z,6.49
2022-12-02T04:36:59.720Z,6.49
2022-12-02T04:42:01.315Z,6.41
2022-12-02T04:47:02.927Z,6.40
2022-12-02T04:52:04.725Z,6.39
2022-12-02T04:57:06.352Z,6.39
2022-12-02T05:02:08.116Z,6.35
2022-12-02T05:07:09.692Z,6.38
2022-12-02T05:12:11.223Z,6.35
2022-12-02T05:17:12.763Z,6.38
2022-12-02T05:22:14.353Z,6.37
2022-12-02T05:27:16.337Z,6.39
2022-12-02T05:32:17.914Z,6.39
2022-12-02T05:37:19.422Z,6.40
2022-12-02T05:42:21.056Z,6.35
2022-12-02T05:47:24.323Z,6.34
2022-12-02T05:52:27.932Z,6.30
2022-12-02T05:57:31.394Z,6.30
2022-12-02T06:02:41.211Z,6.29
2022-12-02T06:07:42.976Z,6.27
2022-12-02T06:12:44.552Z,6.27
2022-12-02T06:17:46.380Z,6.30
2022-12-02T06:22:47.969Z,6.28
2022-12-02T06:27:49.578Z,6.30
2022-12-02T06:32:55.118Z,6.32
2022-12-02T06:38:00.839Z,6.29
2022-12-02T06:43:11.753Z,6.28
2022-12-02T06:48:27.432Z,6.29
2022-12-02T06:53:33.946Z,6.28
2022-12-02T06:58:37.470Z,6.26
2022-12-02T07:03:44.932Z,6.24
2022-12-02T07:08:47.031Z,6.24
2022-12-02T07:13:49.290Z,6.26
2022-12-02T07:18:50.823Z,6.29
2022-12-02T07:23:52.461Z,6.30
2022-12-02T07:29:14.533Z,6.32
2022-12-02T07:34:17.204Z,6.32
2022-12-02T07:39:18.726Z,6.32
2022-12-02T07:44:20.262Z,6.34
2022-12-02T07:49:22.741Z,6.36
2022-12-02T07:54:24.458Z,6.36
2022-12-02T07:59:25.988Z,6.37
2022-12-02T08:04:27.605Z,6.36
2022-12-02T08:09:29.241Z,6.29
2022-12-02T08:14:30.824Z,6.28
2022-12-02T08:19:32.332Z,6.29
2022-12-02T08:24:34.347Z,6.24
2022-12-02T08:29:35.857Z,6.22
2022-12-02T08:34:37.485Z,6.22
2022-12-02T08:39:39.972Z,6.23
2022-12-02T08:44:41.607Z,6.14
2022-12-02T08:49:43.189Z,6.11
2022-12-02T08:54:45.729Z,6.10
2022-12-02T08:59:47.291Z,6.10
2022-12-02T09:04:49.053Z,6.11
2022-12-02T09:09:50.726Z,6.12
2022-12-02T09:14:52.697Z,6.12
2022-12-02T09:19:54.498Z,6.13
2022-12-02T09:24:56.111Z,6.15
2022-12-02T09:29:57.738Z,6.14
2022-12-02T09:34:59.598Z,6.10
2022-12-02T09:40:01.514Z,6.08
2022-12-02T09:45:03.461Z,6.05
2022-12-02T09:50:05.787Z,6.06
2022-12-02T09:55:13.949Z,6.07
2022-12-02T10:00:17.066Z,6.06
2022-12-02T10:05:23.320Z,6.06
2022-12-02T10:10:42.646Z,6.08
2022-12-02T10:15:45.006Z,6.11
2022-12-02T10:20:47.093Z,6.14
2022-12-02T10:25:54.255Z,6.14
2022-12-02T10:31:10.594Z,6.15
2022-12-02T10:36:12.398Z,6.17
2022-12-02T10:41:24.717Z,6.21
2022-12-02T10:46:26.370Z,6.23
2022-12-02T10:51:28.122Z,6.23
2022-12-02T10:56:29.709Z,6.24
2022-12-02T11:01:31.411Z,6.23
2022-12-02T11:06:32.970Z,6.23
2022-12-02T11:11:34.413Z,6.26
2022-12-02T11:16:35.901Z,6.27
2022-12-02T11:21:43.079Z,6.29
2022-12-02T11:27:00.012Z,6.29
2022-12-02T11:32:22.950Z,6.31
2022-12-02T11:37:30.572Z,6.29
2022-12-02T11:42:36.498Z,6.31
2022-12-02T11:47:38.889Z,6.29
2022-12-02T11:52:55.900Z,6.29
2022-12-02T11:57:58.798Z,6.31
2022-12-02T12:03:14.293Z,6.31
2022-12-02T12:08:26.379Z,6.31
2022-12-02T12:13:29.519Z,6.30
2022-12-02T12:18:48.941Z,6.32
2022-12-02T12:23:50.459Z,6.31
2022-12-02T12:28:52.010Z,6.32
2022-12-02T12:33:53.515Z,6.32
2022-12-02T12:38:55.037Z,6.34
2022-12-02T12:43:56.791Z,6.33
2022-12-02T12:48:58.908Z,6.35
2022-12-02T12:54:00.455Z,6.34
2022-12-02T12:59:02.098Z,6.30
2022-12-02T13:04:04.811Z,6.31
2022-12-02T13:09:06.447Z,6.31
2022-12-02T13:14:08.536Z,6.29
2022-12-02T13:19:10.109Z,6.29
2022-12-02T13:24:11.757Z,6.29
2022-12-02T13:29:13.347Z,6.28
2022-12-02T13:34:15.008Z,6.29
2022-12-02T13:39:16.582Z,6.29
2022-12-02T13:44:18.209Z,6.28
2022-12-02T13:49:19.830Z,6.28
2022-12-02T13:54:21.425Z,6.26
2022-12-02T13:59:23.035Z,6.23
2022-12-02T14:04:24.678Z,6.23
2022-12-02T14:09:26.264Z,6.19
2022-12-02T14:14:27.799Z,6.19
2022-12-02T14:19:29.471Z,6.18
2022-12-02T14:24:32.609Z,6.17
2022-12-02T14:29:34.230Z,6.18
2022-12-02T14:34:35.750Z,6.18
2022-12-02T14:39:37.322Z,6.15
2022-12-02T14:44:38.846Z,6.13
2022-12-02T14:49:41.812Z,6.11
2022-12-02T14:54:44.064Z,6.08
2022-12-02T14:59:45.661Z,6.06
2022-12-02T15:04:47.224Z,6.05
2022-12-02T15:09:48.731Z,6.00
2022-12-02T15:14:50.636Z,5.98
2022-12-02T15:19:55.154Z,5.98
2022-12-02T15:24:56.737Z,5.96
2022-12-02T15:29:58.416Z,5.97
2022-12-02T15:34:59.999Z,5.93
2022-12-02T15:40:01.773Z,5.90
2022-12-02T15:45:03.525Z,5.84
2022-12-02T15:50:05.659Z,5.84
2022-12-02T15:55:07.790Z,5.82
2022-12-02T16:00:10.116Z,5.78
2022-12-02T16:05:11.786Z,5.77
2022-12-02T16:10:13.467Z,5.76
2022-12-02T16:15:15.247Z,5.75
2022-12-02T16:20:17.042Z,5.74
2022-12-02T16:25:18.943Z,5.72
2022-12-02T16:30:20.556Z,5.68
2022-12-02T16:35:22.114Z,5.69
2022-12-02T16:40:23.688Z,5.67
2022-12-02T16:45:25.347Z,5.65
2022-12-02T16:50:27.015Z,5.64
2022-12-02T16:55:28.568Z,5.63
2022-12-02T17:00:30.139Z,5.62
2022-12-02T17:05:31.738Z,5.60
2022-12-02T17:10:33.408Z,5.60
2022-12-02T17:15:35.064Z,5.59
2022-12-02T17:20:36.622Z,5.58
2022-12-02T17:25:38.202Z,5.58
2022-12-02T17:30:39.808Z,5.56
2022-12-02T17:35:41.483Z,5.56
2022-12-02T17:40:43.076Z,5.56
2022-12-02T17:45:44.620Z,5.54
2022-12-02T17:50:46.190Z,5.55
2022-12-02T17:55:47.746Z,5.54
2022-12-02T18:00:49.310Z,5.56
2022-12-02T18:05:50.897Z,5.56
2022-12-02T18:10:52.495Z,5.57
2022-12-02T18:15:54.220Z,5.57
2022-12-02T18:20:55.788Z,5.55
2022-12-02T18:25:57.580Z,5.57
2022-12-02T18:30:59.300Z,5.56
2022-12-02T18:36:00.955Z,5.56
2022-12-02T18:41:02.497Z,5.56
2022-12-02T18:46:04.230Z,5.54
2022-12-02T18:51:06.005Z,5.52
2022-12-02T18:56:07.681Z,5.52
2022-12-02T19:01:09.338Z,5.52
2022-12-02T19:06:11.074Z,5.52
2022-12-02T19:11:12.657Z,5.52
2022-12-02T19:16:14.370Z,5.51
2022-12-02T19:21:21.395Z,5.52
2022-12-02T19:26:25.959Z,5.50
2022-12-02T19:31:27.706Z,5.49
2022-12-02T19:36:29.289Z,5.50
2022-12-02T19:41:30.954Z,5.50
2022-12-02T19:46:32.935Z,5.49
2022-12-02T19:51:34.597Z,5.49
2022-12-02T19:56:36.268Z,5.49
2022-12-02T20:01:39.401Z,5.51
2022-12-02T20:06:41.150Z,5.52
2022-12-02T20:11:42.857Z,5.49
2022-12-02T20:16:44.562Z,5.49
2022-12-02T20:21:48.078Z,5.50
2022-12-02T20:26:49.640Z,5.48
2022-12-02T20:31:51.315Z,5.50
2022-12-02T20:36:52.947Z,5.49
2022-12-02T20:41:55.100Z,5.51
2022-12-02T20:47:00.557Z,5.52
2022-12-02T20:52:02.649Z,5.51
2022-12-02T20:57:04.349Z,5.51
2022-12-02T21:02:06.575Z,5.51
2022-12-02T21:07:09.933Z,5.51
2022-12-02T21:12:12.095Z,5.49
2022-12-02T21:17:13.638Z,5.51
2022-12-02T21:22:15.274Z,5.48
2022-12-02T21:27:17.058Z,5.49
2022-12-02T21:32:18.682Z,5.49
2022-12-02T21:37:20.238Z,5.51
2022-12-02T21:42:21.793Z,5.50
2022-12-02T21:47:23.384Z,5.50
2022-12-02T21:52:25.141Z,5.51
2022-12-02T21:57:26.731Z,5.53
2022-12-02T22:02:28.397Z,5.54
2022-12-02T22:07:43.194Z,5.54
2022-12-02T22:12:46.234Z,5.54
2022-12-02T22:17:47.861Z,5.53
2022-12-02T22:22:49.539Z,5.54
2022-12-02T22:27:51.140Z,5.54
2022-12-02T22:32:52.737Z,5.54
2022-12-02T22:37:54.303Z,5.54
2022-12-02T22:42:55.926Z,5.55
2022-12-02T22:47:57.541Z,5.55
2022-12-02T22:52:59.338Z,5.54
2022-12-02T22:58:01.058Z,5.54
2022-12-02T23:03:02.729Z,5.53
2022-12-02T23:08:04.567Z,5.52
2022-12-02T23:13:06.364Z,5.52
2022-12-02T23:18:08.006Z,5.54
2022-12-02T23:23:09.601Z,5.53
2022-12-02T23:28:11.334Z,5.53
2022-12-02T23:33:12.902Z,5.52
2022-12-02T23:38:14.537Z,5.52
2022-12-02T23:43:16.282Z,5.53
2022-12-02T23:48:17.867Z,5.52
2022-12-02T23:53:19.403Z,5.52
2022-12-02T23:58:20.921Z,5.53
